メインページ
METAR-TAF:

METAR-TAF

空港 :

Chautauqua County/Jamestown Airport

Jamestown, ニューヨーク, アメリカ合衆国

緯度: 42-09N, 経度: 079-16W, 海抜: 525m

現時点の気象観測

当レポートは42分前の05:56(UTC)に作成
無風
気温 4°C
湿度 87%
気圧 1016 hPa
視程: 16.1km
高度2800ftの曇り

METAR: KJHW 040556Z AUTO 00000KT 10SM OVC028 04/02 A2999 RMK AO2 SLP171 T00390017 10044 20033 58006

時間: 02:38 (06:38 UTC)

予報

当レポートは1時間0分前の05:38(UTC)に作成
予報は04日の 06時(UTC)から 05日の 06時(UTC)まで有効
変向風 3kt
視程: 10km
高度1200ftの曇り
04日の 0800時(UTC)から
北/北西の風 3kt
視程: 3.2km
高度300ftの曇り
04日の 1400時(UTC)から
変向風 3kt
視程: 8.0km
高度700ftの曇り
04日の 1500時(UTC)から
変向風 3kt
視程: 10km
高度1200ftの千切れ雲あり
04日の 2200時(UTC)から
の風 3kt
視程: 10km
高度2500ftの雲は散在している
05日の 0400時(UTC)から
変向風 3kt
視程: 10km
高度8000ftの千切れ雲あり

TAF: KJHW 040538Z 0406/0506 VRB03KT P6SM OVC012 FM040800 34003KT 2SM BR OVC003 FM041400 VRB03KT 5SM BR OVC007 FM041500 VRB03KT P6SM BKN012 FM042200 35003KT P6SM SCT025 FM050400 VRB03KT P6SM BKN080

4,000以上の空港の気象観測と天気予報(METAR報とTAF報)

利用可能な観測所は地図上に黄色い丸と赤い丸で示す。

丸の上にカーソルを重ねると観測所名を参照できる。

次にクリックすると気象観測と天気予報を参照できる。

マップの切り替え:黒色「×」印の緑ボタンをクリックして拡大、「-」印の緑ボタンをクリックして縮小、緑色の三角印をクリックして隣りの地図に切り替え


METAR-TAF: